Buoy 17652

sailwx.info

Track history (hours):
 
Tides and Currents Weather Stations Pressure Air Temp Water Temp Dewpoint Dewpoint Depression Visibility Wind Speed Wind Dir Waves Ship Positions

Drifting buoy 17652

Last reported at 2017-Apr-24 13:00 UTC. Time now 2017-Apr-24 15:24 UTC.
Position S 38°53' E 061°18'.

Barometer 1002.5 mb
Water temperature 18.1 ° C

Date/timePositionNaut miles runAvg speedWind from/ knotsBaromVisibWave heightAir tempDewpointWater temp
2017-Apr-24 13:00S 38°53' E 061°18'0 0.0 1002.5 18.1
2017-Apr-24 12:00S 38°53' E 061°18'0 0.5 1001.6 18.2
2017-Apr-24 11:00S 38°53' E 061°17'9 1.8 1000.2 18.2
2017-Apr-24 06:00S 38°59' E 061°08'3 2.9 993.3 18.2
2017-Apr-24 05:00S 38°59' E 061°05'0 0.0 991.5 18.2
2017-Apr-24 04:00S 38°59' E 061°05'1 0.9 990.1 18.2
2017-Apr-24 03:00S 38°59' E 061°04'1 1.4 989.7 18.3
2017-Apr-24 02:00S 38°59' E 061°02'2 1.5 989.4 18.4
2017-Apr-24 01:00S 38°58' E 061°01'3 2.6 988.6 18.4
2017-Apr-24 00:00S 38°57' E 060°58'0 0.5 990.1 18.5
2017-Apr-23 23:00S 38°57' E 060°57'2 1.5 991.3 18.5
2017-Apr-23 22:00S 38°56' E 060°55'2 0.8 992.6 18.5
2017-Apr-23 19:00S 38°56' E 060°52'0 0.0 995.7 18.5
2017-Apr-23 18:00S 38°56' E 060°52'1 1.1 996.3 18.4
2017-Apr-23 17:00S 38°57' E 060°51'3 1.4 996.4 18.4
2017-Apr-23 15:00S 38°57' E 060°47'0 0.5 996.2 18.5
2017-Apr-23 14:00S 38°57' E 060°47'0 0.0 995.4 18.5
2017-Apr-23 13:00S 38°57' E 060°47'2 2.0 994.4 18.6
2017-Apr-23 12:00S 38°58' E 060°44'1 0.6 993.6 18.6
2017-Apr-23 10:00S 38°58' E 060°43'3 3.0 992.2 18.6
2017-Apr-23 09:00S 39°01' E 060°41'0 0.0 992.1 18.6
2017-Apr-23 06:00S 39°01' E 060°41'1 1.1 991.0 18.6
2017-Apr-23 05:00S 39°01' E 060°40'2 1.9 990.5 18.5
2017-Apr-23 04:00S 39°03' E 060°39'0 0.0 990.2 18.5
2017-Apr-23 03:00S 39°03' E 060°39'1 1.1 989.4 18.5
2017-Apr-23 02:00S 39°04' E 060°38'1 0.4 989.1 18.5
2017-Apr-22 23:00S 39°03' E 060°37'1 0.9 990.8 18.5
2017-Apr-22 22:00S 39°03' E 060°35'1 0.6 992.0 18.6
2017-Apr-22 21:00S 39°02' E 060°35'2 0.8 992.9 18.6
2017-Apr-22 19:00S 39°02' E 060°34'0 0.0 994.4 18.7
2017-Apr-22 18:00S 39°02' E 060°34'1 0.3 995.7 18.7
2017-Apr-22 14:00S 39°01' E 060°32'2 0.9 996.8 18.7
2017-Apr-22 12:00S 39°01' E 060°30'0 0.5 997.9 18.7
2017-Apr-22 11:00S 39°01' E 060°29'0 0.0 998.8 18.7
2017-Apr-22 10:00S 39°01' E 060°29'2 1.5 999.1 18.7
2017-Apr-22 09:00S 39°01' E 060°28'0 0.0 999.4 18.7
2017-Apr-22 06:00S 39°01' E 060°28'0 0.5 1001.6 18.6
2017-Apr-22 05:00S 39°01' E 060°27'0 0.0 1001.9 18.6
2017-Apr-22 04:00S 39°01' E 060°27'2 1.5 1002.5 18.6
2017-Apr-22 03:00S 39°00' E 060°25'0 0.5 1002.2 18.6
2017-Apr-22 02:00S 39°00' E 060°25'1 0.4 1002.5 18.6
2017-Apr-21 23:00S 38°59' E 060°23'1 0.8 1003.6 18.6
2017-Apr-21 22:00S 38°59' E 060°23'1 0.8 1004.2 18.5
2017-Apr-21 21:00S 38°59' E 060°23'2 0.7 1004.6 18.5
2017-Apr-21 18:00S 38°58' E 060°21'1 0.8 1005.7 18.6
2017-Apr-21 17:00S 38°58' E 060°20'1 0.9 1006.1 18.6
2017-Apr-21 16:00S 38°58' E 060°19'1 0.8 1006.9 18.5
2017-Apr-21 15:00S 38°57' E 060°19'1 0.8 1007.5 18.5
2017-Apr-21 14:00S 38°56' E 060°18'1 0.9 1008.0 18.6
2017-Apr-21 13:00S 38°56' E 060°17'0 0.0 1008.6 18.6
2017-Apr-21 12:00S 38°56' E 060°17'2 1.5 1009.3 18.6
2017-Apr-21 11:00S 38°55' E 060°16'0 0.0 1009.7 18.6
2017-Apr-21 10:00S 38°55' E 060°16'3 3.0 1010.7 18.5
2017-Apr-21 09:00S 38°53' E 060°13'0 0.2 1011.8 18.5
2017-Apr-21 06:00S 38°53' E 060°14'0 0.5 1014.4 18.4
2017-Apr-21 05:00S 38°53' E 060°13'0 0.5 1015.1 18.4
2017-Apr-21 04:00S 38°53' E 060°14'1 0.8 1015.7 18.4
2017-Apr-21 03:00S 38°52' E 060°13'1 0.6 1015.8 18.4
2017-Apr-21 02:00S 38°52' E 060°13'1 0.8 1016.3 18.4
2017-Apr-21 01:00S 38°51' E 060°13'0 0.2 1017.0 18.4
2017-Apr-20 23:00S 38°51' E 060°12'1 0.8 1018.3 18.4
2017-Apr-20 22:00S 38°50' E 060°13'0 0.0 1019.0 18.4
2017-Apr-20 21:00S 38°50' E 060°13'0 0.2 1019.4 18.4
2017-Apr-20 19:00S 38°50' E 060°12'0 0.5 1020.3 18.4
2017-Apr-20 18:00S 38°50' E 060°11'0 0.5 1020.5 18.5
2017-Apr-20 17:00S 38°50' E 060°12'2 0.7 1020.8 18.5
2017-Apr-20 14:00S 38°50' E 060°10'1 0.8 1021.3 18.6
2017-Apr-20 13:00S 38°49' E 060°09'0 0.0 1021.2 18.6
2017-Apr-20 12:00S 38°49' E 060°09'1 0.6 1021.9 18.6
2017-Apr-20 10:00S 38°48' E 060°08'3 0.8 1021.8 18.6
2017-Apr-20 06:00S 38°45' E 060°07'0 0.0 1023.4 18.5
2017-Apr-20 05:00S 38°45' E 060°07'1 1.3 1023.6 18.5
2017-Apr-20 04:00S 38°44' E 060°08'0 0.0 1023.4 18.5
2017-Apr-20 03:00S 38°44' E 060°08'0 0.5 1023.2 18.5
2017-Apr-20 02:00S 38°44' E 060°07'0 0.5 1023.5 18.5
2017-Apr-20 01:00S 38°44' E 060°08'1 1.4 1023.5 18.6
2017-Apr-20 00:00S 38°44' E 060°06'0 0.0 1023.4 18.6
2017-Apr-19 23:00S 38°44' E 060°06'0 0.5 1023.6 18.6
2017-Apr-19 22:00S 38°44' E 060°07'0 0.0 1024.1 18.6
2017-Apr-19 21:00S 38°44' E 060°07'2 0.7 1024.3 18.6
2017-Apr-19 18:00S 38°43' E 060°04'1 0.6 1024.7 18.6
2017-Apr-19 17:00S 38°42' E 060°04'1 1.1 1024.7 18.6
2017-Apr-19 16:00S 38°41' E 060°03'1 0.6 1024.9 18.6
2017-Apr-19 15:00S 38°41' E 060°03'1 0.6 1024.7 18.7
2017-Apr-19 14:00S 38°40' E 060°03'1 0.6 1024.2 18.7
2017-Apr-19 13:00S 38°40' E 060°03'0 0.5 1024.1 18.7
2017-Apr-19 12:00S 38°40' E 060°04'1 0.1 1024.3 18.7
2017-Apr-19 06:00S 38°39' E 060°04'0 0.5 1025.9 18.7
2017-Apr-19 05:00S 38°39' E 060°04'1 0.8 1025.9 18.7
2017-Apr-19 04:00S 38°38' E 060°03'0 0.5 1025.5 18.8
2017-Apr-19 03:00S 38°38' E 060°02'1 0.6 1024.9 18.7
2017-Apr-19 02:00S 38°38' E 060°02'0 0.0 1024.6 18.7
2017-Apr-19 01:00S 38°38' E 060°02'1 1.3 1024.4 18.7
2017-Apr-19 00:00S 38°37' E 060°02'0 0.0 1024.1 18.7
2017-Apr-18 23:00S 38°37' E 060°02'0 0.0 1024.3 18.7
2017-Apr-18 22:00S 38°37' E 060°02'0 0.0 1024.9 18.8
2017-Apr-18 21:00S 38°37' E 060°02'1 0.6 1025.0 18.8
2017-Apr-18 19:00S 38°35' E 060°02'0 0.5 1024.9 18.9
2017-Apr-18 18:00S 38°35' E 060°02'1 1.2 1024.8 18.9
2017-Apr-18 17:00S 38°34' E 060°02'0 0.0 1024.5 18.9
2017-Apr-18 16:00S 38°34' E 060°02'0 0.0 1024.1 19.0
2017-Apr-18 15:00S 38°34' E 060°02'1 0.6 1023.7 19.1
2017-Apr-18 13:00S 38°33' E 060°03'0 0.0 1022.1 19.1
2017-Apr-18 12:00S 38°33' E 060°03'1 0.8 1021.7 19.2
2017-Apr-18 11:00S 38°32' E 060°04'0 0.0 1021.4 19.2
2017-Apr-18 10:00S 38°32' E 060°04'2 0.5 1021.2 19.3
2017-Apr-18 06:00S 38°31' E 060°02'1 0.8 1021.2 18.8
2017-Apr-18 05:00S 38°30' E 060°02'1 0.9 1021.2 18.8
2017-Apr-18 04:00S 38°30' E 060°01'1 0.6 1021.0 18.7
2017-Apr-18 03:00S 38°29' E 060°01'0 0.5 1020.8 18.7
2017-Apr-18 02:00S 38°29' E 060°00'0 0.5 1021.0 18.8
2017-Apr-18 01:00S 38°29' E 059°59'2 0.7 1020.9 18.8
2017-Apr-17 22:00S 38°28' E 059°57'0 0.0 1020.9 18.9
2017-Apr-17 21:00S 38°28' E 059°57'2 1.0 1021.4 18.9
2017-Apr-17 19:00S 38°26' E 059°56'0 0.5 1021.6 19.0
2017-Apr-17 18:00S 38°26' E 059°55'1 1.1 1022.0 19.0
2017-Apr-17 17:00S 38°26' E 059°54'0 0.0 1022.2 19.1
2017-Apr-17 16:00S 38°26' E 059°54'4 1.5 1022.4 19.1
2017-Apr-17 13:00S 38°22' E 059°52'0 0.0 1022.0 19.1
2017-Apr-17 12:00S 38°22' E 059°52'0 0.0 1022.2 19.2
2017-Apr-17 11:00S 38°22' E 059°52'0 0.0 1022.4 19.3
2017-Apr-17 10:00S 38°22' E 059°52'4 1.1 1022.2 19.4
2017-Apr-17 06:00S 38°17' E 059°53'1 0.8 1024.3 19.0
2017-Apr-17 05:00S 38°17' E 059°52'1 0.8 1024.6 19.0
2017-Apr-17 04:00S 38°17' E 059°52'1 0.6 1024.1 18.9
2017-Apr-17 03:00S 38°17' E 059°52'0 0.0 1023.6 18.9
2017-Apr-17 02:00S 38°17' E 059°52'1 0.8 1023.4 18.9
2017-Apr-17 01:00S 38°16' E 059°51'3 0.9 1023.4 18.9
2017-Apr-16 22:00S 38°14' E 059°50'0 0.0 1024.0 18.9
2017-Apr-16 21:00S 38°14' E 059°50'2 0.9 1024.4 18.9
2017-Apr-16 19:00S 38°12' E 059°49'0 0.0 1025.0 19.0
2017-Apr-16 18:00S 38°12' E 059°49'1 1.3 1025.1 19.1
2017-Apr-16 17:00S 38°11' E 059°49'1 0.6 1024.7 19.1
2017-Apr-16 16:00S 38°10' E 059°49'1 0.8 1024.4 19.1
2017-Apr-16 15:00S 38°10' E 059°49'1 1.3 1024.0 19.1
2017-Apr-16 14:00S 38°08' E 059°49'1 0.6 1023.7 19.2
2017-Apr-16 13:00S 38°08' E 059°49'1 0.8 1023.8 19.3
2017-Apr-16 12:00S 38°07' E 059°49'1 0.6 1023.9 19.3
2017-Apr-16 11:00S 38°07' E 059°49'0 0.0 1024.1 19.3
2017-Apr-16 10:00S 38°07' E 059°49'3 0.6 1024.1 19.3
2017-Apr-16 05:00S 38°04' E 059°48'1 0.9 1025.4 18.8
2017-Apr-16 04:00S 38°04' E 059°49'1 0.8 1025.6 18.8
2017-Apr-16 03:00S 38°03' E 059°49'1 0.8 1025.4 18.8
2017-Apr-16 02:00S 38°02' E 059°49'1 0.8 1025.4 18.8
2017-Apr-16 01:00S 38°02' E 059°50'1 0.6 1025.6 18.9
2017-Apr-15 23:00S 38°01' E 059°50'1 1.3 1025.5 19.0
2017-Apr-15 22:00S 37°59' E 059°50'2 0.4 1026.4 19.2
2017-Apr-15 18:00S 37°58' E 059°52'0 0.0 1027.9 19.4
2017-Apr-15 17:00S 37°58' E 059°52'1 0.4 1028.1 19.4
2017-Apr-15 15:00S 37°58' E 059°52'1 0.8 1027.5 19.3
2017-Apr-15 14:00S 37°57' E 059°52'1 1.3 1027.2 19.6
2017-Apr-15 13:00S 37°56' E 059°52'0 0.0 1027.3 20.2
2017-Apr-15 12:00S 37°56' E 059°52'0 0.0 1027.8 20.4
2017-Apr-15 11:00S 37°56' E 059°52'5 1.0 1028.1 20.5
2017-Apr-15 06:00S 37°52' E 059°55'0 0.0 1029.1 18.9
2017-Apr-15 05:00S 37°52' E 059°55'1 1.1 1029.0 18.6
2017-Apr-15 04:00S 37°51' E 059°56'1 0.6 1029.1 18.5
2017-Apr-15 03:00S 37°50' E 059°56'1 0.9 1029.1 18.4
2017-Apr-15 02:00S 37°50' E 059°58'1 0.4 1029.4 18.5
2017-Apr-14 23:00S 37°49' E 059°58'1 0.8 1029.6 18.6
2017-Apr-14 22:00S 37°49' E 059°59'1 1.1 1030.2 18.6
2017-Apr-14 21:00S 37°48' E 060°00'0 0.2 1030.3 18.7
2017-Apr-14 18:00S 37°48' E 059°59'0 0.0 1031.0 19.0
2017-Apr-14 17:00S 37°48' E 059°59'1 1.3 1030.6 19.1
2017-Apr-14 16:00S 37°47' E 060°00'1 0.9 1030.3 19.2
2017-Apr-14 15:00S 37°47' E 060°01'1 0.8 1030.2 19.5
2017-Apr-14 14:00S 37°46' E 060°01'1 0.8 1030.0 19.8
2017-Apr-14 13:00S 37°46' E 060°00'   1029.9 20.0
Track history (hours):
 
Tides and Currents Weather Stations Pressure Air Temp Water Temp Dewpoint Dewpoint Depression Visibility Wind Speed Wind Dir Waves Ship Positions

Drifting buoy 17652

Last reported at 2017-Apr-24 13:00 UTC. Time now 2017-Apr-24 15:24 UTC.
Position S 38°53' E 061°18'.

Barometer 1002.5 mb
Water temperature 18.1 ° C

Date/timePositionNaut miles runAvg speedWind from/ knotsBaromVisibWave heightAir tempDewpointWater temp
2017-Apr-24 13:00S 38°53' E 061°18'0 0.0 1002.5 18.1
2017-Apr-24 12:00S 38°53' E 061°18'0 0.5 1001.6 18.2
2017-Apr-24 11:00S 38°53' E 061°17'9 1.8 1000.2 18.2
2017-Apr-24 06:00S 38°59' E 061°08'3 2.9 993.3 18.2
2017-Apr-24 05:00S 38°59' E 061°05'0 0.0 991.5 18.2
2017-Apr-24 04:00S 38°59' E 061°05'1 0.9 990.1 18.2
2017-Apr-24 03:00S 38°59' E 061°04'1 1.4 989.7 18.3
2017-Apr-24 02:00S 38°59' E 061°02'2 1.5 989.4 18.4
2017-Apr-24 01:00S 38°58' E 061°01'3 2.6 988.6 18.4
2017-Apr-24 00:00S 38°57' E 060°58'0 0.5 990.1 18.5
2017-Apr-23 23:00S 38°57' E 060°57'2 1.5 991.3 18.5
2017-Apr-23 22:00S 38°56' E 060°55'2 0.8 992.6 18.5
2017-Apr-23 19:00S 38°56' E 060°52'0 0.0 995.7 18.5
2017-Apr-23 18:00S 38°56' E 060°52'1 1.1 996.3 18.4
2017-Apr-23 17:00S 38°57' E 060°51'3 1.4 996.4 18.4
2017-Apr-23 15:00S 38°57' E 060°47'0 0.5 996.2 18.5
2017-Apr-23 14:00S 38°57' E 060°47'0 0.0 995.4 18.5
2017-Apr-23 13:00S 38°57' E 060°47'2 2.0 994.4 18.6
2017-Apr-23 12:00S 38°58' E 060°44'1 0.6 993.6 18.6
2017-Apr-23 10:00S 38°58' E 060°43'3 3.0 992.2 18.6
2017-Apr-23 09:00S 39°01' E 060°41'0 0.0 992.1 18.6
2017-Apr-23 06:00S 39°01' E 060°41'1 1.1 991.0 18.6
2017-Apr-23 05:00S 39°01' E 060°40'2 1.9 990.5 18.5
2017-Apr-23 04:00S 39°03' E 060°39'0 0.0 990.2 18.5
2017-Apr-23 03:00S 39°03' E 060°39'1 1.1 989.4 18.5
2017-Apr-23 02:00S 39°04' E 060°38'1 0.4 989.1 18.5
2017-Apr-22 23:00S 39°03' E 060°37'1 0.9 990.8 18.5
2017-Apr-22 22:00S 39°03' E 060°35'1 0.6 992.0 18.6
2017-Apr-22 21:00S 39°02' E 060°35'2 0.8 992.9 18.6
2017-Apr-22 19:00S 39°02' E 060°34'0 0.0 994.4 18.7
2017-Apr-22 18:00S 39°02' E 060°34'1 0.3 995.7 18.7
2017-Apr-22 14:00S 39°01' E 060°32'2 0.9 996.8 18.7
2017-Apr-22 12:00S 39°01' E 060°30'0 0.5 997.9 18.7
2017-Apr-22 11:00S 39°01' E 060°29'0 0.0 998.8 18.7
2017-Apr-22 10:00S 39°01' E 060°29'2 1.5 999.1 18.7
2017-Apr-22 09:00S 39°01' E 060°28'0 0.0 999.4 18.7
2017-Apr-22 06:00S 39°01' E 060°28'0 0.5 1001.6 18.6
2017-Apr-22 05:00S 39°01' E 060°27'0 0.0 1001.9 18.6
2017-Apr-22 04:00S 39°01' E 060°27'2 1.5 1002.5 18.6
2017-Apr-22 03:00S 39°00' E 060°25'0 0.5 1002.2 18.6
2017-Apr-22 02:00S 39°00' E 060°25'1 0.4 1002.5 18.6
2017-Apr-21 23:00S 38°59' E 060°23'1 0.8 1003.6 18.6
2017-Apr-21 22:00S 38°59' E 060°23'1 0.8 1004.2 18.5
2017-Apr-21 21:00S 38°59' E 060°23'2 0.7 1004.6 18.5
2017-Apr-21 18:00S 38°58' E 060°21'1 0.8 1005.7 18.6
2017-Apr-21 17:00S 38°58' E 060°20'1 0.9 1006.1 18.6
2017-Apr-21 16:00S 38°58' E 060°19'1 0.8 1006.9 18.5
2017-Apr-21 15:00S 38°57' E 060°19'1 0.8 1007.5 18.5
2017-Apr-21 14:00S 38°56' E 060°18'1 0.9 1008.0 18.6
2017-Apr-21 13:00S 38°56' E 060°17'0 0.0 1008.6 18.6
2017-Apr-21 12:00S 38°56' E 060°17'2 1.5 1009.3 18.6
2017-Apr-21 11:00S 38°55' E 060°16'0 0.0 1009.7 18.6
2017-Apr-21 10:00S 38°55' E 060°16'3 3.0 1010.7 18.5
2017-Apr-21 09:00S 38°53' E 060°13'0 0.2 1011.8 18.5
2017-Apr-21 06:00S 38°53' E 060°14'0 0.5 1014.4 18.4
2017-Apr-21 05:00S 38°53' E 060°13'0 0.5 1015.1 18.4
2017-Apr-21 04:00S 38°53' E 060°14'1 0.8 1015.7 18.4
2017-Apr-21 03:00S 38°52' E 060°13'1 0.6 1015.8 18.4
2017-Apr-21 02:00S 38°52' E 060°13'1 0.8 1016.3 18.4
2017-Apr-21 01:00S 38°51' E 060°13'0 0.2 1017.0 18.4
2017-Apr-20 23:00S 38°51' E 060°12'1 0.8 1018.3 18.4
2017-Apr-20 22:00S 38°50' E 060°13'0 0.0 1019.0 18.4
2017-Apr-20 21:00S 38°50' E 060°13'0 0.2 1019.4 18.4
2017-Apr-20 19:00S 38°50' E 060°12'0 0.5 1020.3 18.4
2017-Apr-20 18:00S 38°50' E 060°11'0 0.5 1020.5 18.5
2017-Apr-20 17:00S 38°50' E 060°12'2 0.7 1020.8 18.5
2017-Apr-20 14:00S 38°50' E 060°10'1 0.8 1021.3 18.6
2017-Apr-20 13:00S 38°49' E 060°09'0 0.0 1021.2 18.6
2017-Apr-20 12:00S 38°49' E 060°09'1 0.6 1021.9 18.6
2017-Apr-20 10:00S 38°48' E 060°08'3 0.8 1021.8 18.6
2017-Apr-20 06:00S 38°45' E 060°07'0 0.0 1023.4 18.5
2017-Apr-20 05:00S 38°45' E 060°07'1 1.3 1023.6 18.5
2017-Apr-20 04:00S 38°44' E 060°08'0 0.0 1023.4 18.5
2017-Apr-20 03:00S 38°44' E 060°08'0 0.5 1023.2 18.5
2017-Apr-20 02:00S 38°44' E 060°07'0 0.5 1023.5 18.5
2017-Apr-20 01:00S 38°44' E 060°08'1 1.4 1023.5 18.6
2017-Apr-20 00:00S 38°44' E 060°06'0 0.0 1023.4 18.6
2017-Apr-19 23:00S 38°44' E 060°06'0 0.5 1023.6 18.6
2017-Apr-19 22:00S 38°44' E 060°07'0 0.0 1024.1 18.6
2017-Apr-19 21:00S 38°44' E 060°07'2 0.7 1024.3 18.6
2017-Apr-19 18:00S 38°43' E 060°04'1 0.6 1024.7 18.6
2017-Apr-19 17:00S 38°42' E 060°04'1 1.1 1024.7 18.6
2017-Apr-19 16:00S 38°41' E 060°03'1 0.6 1024.9 18.6
2017-Apr-19 15:00S 38°41' E 060°03'1 0.6 1024.7 18.7
2017-Apr-19 14:00S 38°40' E 060°03'1 0.6 1024.2 18.7
2017-Apr-19 13:00S 38°40' E 060°03'0 0.5 1024.1 18.7
2017-Apr-19 12:00S 38°40' E 060°04'1 0.1 1024.3 18.7
2017-Apr-19 06:00S 38°39' E 060°04'0 0.5 1025.9 18.7
2017-Apr-19 05:00S 38°39' E 060°04'1 0.8 1025.9 18.7
2017-Apr-19 04:00S 38°38' E 060°03'0 0.5 1025.5 18.8
2017-Apr-19 03:00S 38°38' E 060°02'1 0.6 1024.9 18.7
2017-Apr-19 02:00S 38°38' E 060°02'0 0.0 1024.6 18.7
2017-Apr-19 01:00S 38°38' E 060°02'1 1.3 1024.4 18.7
2017-Apr-19 00:00S 38°37' E 060°02'0 0.0 1024.1 18.7
2017-Apr-18 23:00S 38°37' E 060°02'0 0.0 1024.3 18.7
2017-Apr-18 22:00S 38°37' E 060°02'0 0.0 1024.9 18.8
2017-Apr-18 21:00S 38°37' E 060°02'1 0.6 1025.0 18.8
2017-Apr-18 19:00S 38°35' E 060°02'0 0.5 1024.9 18.9
2017-Apr-18 18:00S 38°35' E 060°02'1 1.2 1024.8 18.9
2017-Apr-18 17:00S 38°34' E 060°02'0 0.0 1024.5 18.9
2017-Apr-18 16:00S 38°34' E 060°02'0 0.0 1024.1 19.0
2017-Apr-18 15:00S 38°34' E 060°02'1 0.6 1023.7 19.1
2017-Apr-18 13:00S 38°33' E 060°03'0 0.0 1022.1 19.1
2017-Apr-18 12:00S 38°33' E 060°03'1 0.8 1021.7 19.2
2017-Apr-18 11:00S 38°32' E 060°04'0 0.0 1021.4 19.2
2017-Apr-18 10:00S 38°32' E 060°04'2 0.5 1021.2 19.3
2017-Apr-18 06:00S 38°31' E 060°02'1 0.8 1021.2 18.8
2017-Apr-18 05:00S 38°30' E 060°02'1 0.9 1021.2 18.8
2017-Apr-18 04:00S 38°30' E 060°01'1 0.6 1021.0 18.7
2017-Apr-18 03:00S 38°29' E 060°01'0 0.5 1020.8 18.7
2017-Apr-18 02:00S 38°29' E 060°00'0 0.5 1021.0 18.8
2017-Apr-18 01:00S 38°29' E 059°59'2 0.7 1020.9 18.8
2017-Apr-17 22:00S 38°28' E 059°57'0 0.0 1020.9 18.9
2017-Apr-17 21:00S 38°28' E 059°57'2 1.0 1021.4 18.9
2017-Apr-17 19:00S 38°26' E 059°56'0 0.5 1021.6 19.0
2017-Apr-17 18:00S 38°26' E 059°55'1 1.1 1022.0 19.0
2017-Apr-17 17:00S 38°26' E 059°54'0 0.0 1022.2 19.1
2017-Apr-17 16:00S 38°26' E 059°54'4 1.5 1022.4 19.1
2017-Apr-17 13:00S 38°22' E 059°52'0 0.0 1022.0 19.1
2017-Apr-17 12:00S 38°22' E 059°52'0 0.0 1022.2 19.2
2017-Apr-17 11:00S 38°22' E 059°52'0 0.0 1022.4 19.3
2017-Apr-17 10:00S 38°22' E 059°52'4 1.1 1022.2 19.4
2017-Apr-17 06:00S 38°17' E 059°53'1 0.8 1024.3 19.0
2017-Apr-17 05:00S 38°17' E 059°52'1 0.8 1024.6 19.0
2017-Apr-17 04:00S 38°17' E 059°52'1 0.6 1024.1 18.9
2017-Apr-17 03:00S 38°17' E 059°52'0 0.0 1023.6 18.9
2017-Apr-17 02:00S 38°17' E 059°52'1 0.8 1023.4 18.9
2017-Apr-17 01:00S 38°16' E 059°51'3 0.9 1023.4 18.9
2017-Apr-16 22:00S 38°14' E 059°50'0 0.0 1024.0 18.9
2017-Apr-16 21:00S 38°14' E 059°50'2 0.9 1024.4 18.9
2017-Apr-16 19:00S 38°12' E 059°49'0 0.0 1025.0 19.0
2017-Apr-16 18:00S 38°12' E 059°49'1 1.3 1025.1 19.1
2017-Apr-16 17:00S 38°11' E 059°49'1 0.6 1024.7 19.1
2017-Apr-16 16:00S 38°10' E 059°49'1 0.8 1024.4 19.1
2017-Apr-16 15:00S 38°10' E 059°49'1 1.3 1024.0 19.1
2017-Apr-16 14:00S 38°08' E 059°49'1 0.6 1023.7 19.2
2017-Apr-16 13:00S 38°08' E 059°49'1 0.8 1023.8 19.3
2017-Apr-16 12:00S 38°07' E 059°49'1 0.6 1023.9 19.3
2017-Apr-16 11:00S 38°07' E 059°49'0 0.0 1024.1 19.3
2017-Apr-16 10:00S 38°07' E 059°49'3 0.6 1024.1 19.3
2017-Apr-16 05:00S 38°04' E 059°48'1 0.9 1025.4 18.8
2017-Apr-16 04:00S 38°04' E 059°49'1 0.8 1025.6 18.8
2017-Apr-16 03:00S 38°03' E 059°49'1 0.8 1025.4 18.8
2017-Apr-16 02:00S 38°02' E 059°49'1 0.8 1025.4 18.8
2017-Apr-16 01:00S 38°02' E 059°50'1 0.6 1025.6 18.9
2017-Apr-15 23:00S 38°01' E 059°50'1 1.3 1025.5 19.0
2017-Apr-15 22:00S 37°59' E 059°50'2 0.4 1026.4 19.2
2017-Apr-15 18:00S 37°58' E 059°52'0 0.0 1027.9 19.4
2017-Apr-15 17:00S 37°58' E 059°52'1 0.4 1028.1 19.4
2017-Apr-15 15:00S 37°58' E 059°52'1 0.8 1027.5 19.3
2017-Apr-15 14:00S 37°57' E 059°52'1 1.3 1027.2 19.6
2017-Apr-15 13:00S 37°56' E 059°52'0 0.0 1027.3 20.2
2017-Apr-15 12:00S 37°56' E 059°52'0 0.0 1027.8 20.4
2017-Apr-15 11:00S 37°56' E 059°52'5 1.0 1028.1 20.5
2017-Apr-15 06:00S 37°52' E 059°55'0 0.0 1029.1 18.9
2017-Apr-15 05:00S 37°52' E 059°55'1 1.1 1029.0 18.6
2017-Apr-15 04:00S 37°51' E 059°56'1 0.6 1029.1 18.5
2017-Apr-15 03:00S 37°50' E 059°56'1 0.9 1029.1 18.4
2017-Apr-15 02:00S 37°50' E 059°58'1 0.4 1029.4 18.5
2017-Apr-14 23:00S 37°49' E 059°58'1 0.8 1029.6 18.6
2017-Apr-14 22:00S 37°49' E 059°59'1 1.1 1030.2 18.6
2017-Apr-14 21:00S 37°48' E 060°00'0 0.2 1030.3 18.7
2017-Apr-14 18:00S 37°48' E 059°59'0 0.0 1031.0 19.0
2017-Apr-14 17:00S 37°48' E 059°59'1 1.3 1030.6 19.1
2017-Apr-14 16:00S 37°47' E 060°00'1 0.9 1030.3 19.2
2017-Apr-14 15:00S 37°47' E 060°01'1 0.8 1030.2 19.5
2017-Apr-14 14:00S 37°46' E 060°01'1 0.8 1030.0 19.8
2017-Apr-14 13:00S 37°46' E 060°00'   1029.9 20.0

Dump ship's entire track history